createdAt,value
2023-10-02T00:02:06.780Z,18.16
2023-10-02T00:07:30.790Z,18.14
2023-10-02T00:12:59.561Z,18.15
2023-10-02T00:18:20.665Z,18.15
2023-10-02T00:24:00.696Z,18.16
2023-10-02T00:29:24.406Z,18.14
2023-10-02T00:34:45.012Z,18.16
2023-10-02T00:40:08.179Z,18.17
2023-10-02T00:45:39.929Z,18.15
2023-10-02T00:51:07.184Z,18.15
2023-10-02T00:56:30.273Z,18.13
2023-10-02T01:01:51.261Z,18.11
2023-10-02T01:07:13.177Z,18.09
2023-10-02T01:12:44.436Z,18.08
2023-10-02T01:18:24.231Z,18.06
2023-10-02T01:24:08.333Z,18.04
2023-10-02T01:29:30.933Z,18.01
2023-10-02T01:34:52.575Z,17.98
2023-10-02T01:40:34.721Z,17.95
2023-10-02T01:45:58.472Z,17.94
2023-10-02T01:51:27.458Z,17.93
2023-10-02T01:56:49.946Z,17.91
2023-10-02T02:02:14.266Z,17.92
2023-10-02T02:07:36.538Z,17.92
2023-10-02T02:12:56.965Z,17.91
2023-10-02T02:18:20.675Z,17.91
2023-10-02T02:23:41.262Z,17.92
2023-10-02T02:29:04.298Z,17.90
2023-10-02T02:34:27.786Z,17.89
2023-10-02T02:39:50.980Z,17.89
2023-10-02T02:45:26.042Z,17.87
2023-10-02T02:50:47.142Z,17.86
2023-10-02T02:56:24.849Z,17.86
2023-10-02T03:01:46.840Z,17.86
2023-10-02T03:07:18.934Z,17.85
2023-10-02T03:12:46.229Z,17.85
2023-10-02T03:18:24.014Z,17.83
2023-10-02T03:23:44.966Z,17.83
2023-10-02T03:29:13.718Z,17.81
2023-10-02T03:34:35.893Z,17.81
2023-10-02T03:39:59.542Z,17.81
2023-10-02T03:45:39.736Z,17.82
2023-10-02T03:51:07.954Z,17.82
2023-10-02T03:56:43.858Z,17.83
2023-10-02T04:02:23.993Z,17.85
2023-10-02T04:07:48.505Z,17.87
2023-10-02T04:13:09.955Z,17.87
2023-10-02T04:18:50.618Z,17.88
2023-10-02T04:24:11.459Z,17.91
2023-10-02T04:29:38.392Z,17.95
2023-10-02T04:34:59.511Z,17.95
2023-10-02T04:40:24.292Z,17.95
2023-10-02T04:45:45.520Z,17.96
2023-10-02T04:51:10.849Z,17.98
2023-10-02T04:56:31.794Z,17.99
2023-10-02T05:02:12.400Z,17.99
2023-10-02T05:07:33.082Z,17.98
2023-10-02T05:12:54.506Z,18.00
2023-10-02T05:18:18.120Z,17.99
2023-10-02T05:23:39.416Z,18.02
2023-10-02T05:29:09.759Z,18.01
2023-10-02T05:34:31.123Z,18.01
2023-10-02T05:39:51.847Z,17.98
2023-10-02T05:45:14.820Z,18.00
2023-10-02T05:50:41.905Z,18.00
2023-10-02T05:56:11.387Z,18.00
2023-10-02T06:01:35.732Z,18.04
2023-10-02T06:07:02.549Z,18.06
2023-10-02T06:12:25.436Z,18.06
2023-10-02T06:17:47.053Z,18.06
2023-10-02T06:23:21.182Z,18.06
2023-10-02T06:28:43.047Z,18.08
2023-10-02T06:34:06.567Z,18.08
2023-10-02T06:39:28.036Z,18.10
2023-10-02T06:44:54.674Z,18.10
2023-10-02T06:50:28.644Z,18.12
2023-10-02T06:55:59.979Z,18.13
2023-10-02T07:01:21.701Z,18.14
2023-10-02T07:06:42.031Z,18.16
2023-10-02T07:12:29.852Z,18.17
2023-10-02T07:17:51.448Z,18.18
2023-10-02T07:23:20.396Z,18.19
2023-10-02T07:28:51.578Z,18.21
2023-10-02T07:34:17.165Z,18.24
2023-10-02T07:39:39.325Z,18.31
2023-10-02T07:45:13.902Z,18.33
2023-10-02T07:50:36.317Z,18.36
2023-10-02T07:55:56.865Z,18.40
2023-10-02T08:01:17.900Z,18.40
2023-10-02T08:06:41.121Z,18.41
2023-10-02T08:12:30.267Z,18.46
2023-10-02T08:17:50.674Z,18.49
2023-10-02T08:23:25.150Z,18.52
2023-10-02T08:28:47.113Z,18.58
2023-10-02T08:34:15.211Z,18.68
2023-10-02T08:39:40.197Z,18.70
2023-10-02T08:45:02.232Z,18.72
2023-10-02T08:50:23.206Z,18.76
2023-10-02T08:55:46.608Z,18.79
2023-10-02T09:01:10.494Z,18.90
2023-10-02T09:06:37.968Z,19.02
2023-10-02T09:11:58.642Z,19.03
2023-10-02T09:17:23.010Z,19.11
2023-10-02T09:23:09.261Z,19.29
2023-10-02T09:28:43.389Z,19.39
2023-10-02T09:34:56.914Z,19.60
2023-10-02T09:39:58.203Z,19.76
2023-10-02T09:45:32.370Z,19.86
2023-10-02T09:50:55.318Z,19.87
2023-10-02T09:56:18.975Z,19.86
2023-10-02T10:01:39.678Z,19.92
2023-10-02T10:07:08.116Z,19.82
2023-10-02T10:12:55.957Z,19.72
2023-10-02T10:18:18.433Z,19.82
2023-10-02T10:23:39.302Z,20.04
2023-10-02T10:29:00.047Z,20.30
2023-10-02T10:35:21.382Z,20.16
2023-10-02T10:40:45.712Z,20.01
2023-10-02T10:46:13.564Z,19.88
2023-10-02T10:51:41.053Z,19.83
2023-10-02T10:57:23.970Z,19.95
2023-10-02T11:02:44.949Z,20.05
2023-10-02T11:08:25.157Z,20.09
2023-10-02T11:13:54.345Z,20.20
2023-10-02T11:19:20.760Z,20.23
2023-10-02T11:25:19.668Z,20.20
2023-10-02T11:30:43.540Z,20.06
2023-10-02T11:36:12.474Z,20.02
2023-10-02T11:41:37.676Z,19.91
2023-10-02T11:47:00.635Z,19.91
2023-10-02T11:52:21.191Z,19.88
2023-10-02T11:57:41.588Z,19.95
2023-10-02T12:03:02.253Z,20.14
2023-10-02T12:08:23.473Z,20.18
2023-10-02T12:13:45.872Z,20.13
2023-10-02T12:19:09.921Z,20.23
2023-10-02T12:24:30.860Z,20.35
2023-10-02T12:29:51.982Z,20.23
2023-10-02T12:35:17.835Z,20.01
2023-10-02T12:40:38.650Z,19.87
2023-10-02T12:46:02.344Z,19.84
2023-10-02T12:51:24.071Z,19.75
2023-10-02T12:56:46.801Z,19.71
2023-10-02T13:02:09.031Z,19.69
2023-10-02T13:07:29.513Z,19.75
2023-10-02T13:12:50.502Z,19.89
2023-10-02T13:18:11.401Z,20.06
2023-10-02T13:23:32.555Z,20.22
2023-10-02T13:28:55.313Z,20.37
2023-10-02T13:34:16.203Z,20.39
2023-10-02T13:39:40.134Z,20.24
2023-10-02T13:45:01.883Z,20.15
2023-10-02T13:50:23.427Z,20.08
2023-10-02T13:55:43.869Z,20.08
2023-10-02T14:01:06.597Z,20.06
2023-10-02T14:06:29.838Z,20.06
2023-10-02T14:11:52.112Z,20.01
2023-10-02T14:17:13.134Z,19.93
2023-10-02T14:22:38.308Z,19.93
2023-10-02T14:27:59.832Z,19.93
2023-10-02T14:33:21.564Z,19.91
2023-10-02T14:38:41.986Z,19.84
2023-10-02T14:44:05.194Z,19.79
2023-10-02T14:49:25.906Z,19.73
2023-10-02T14:54:47.117Z,19.73
2023-10-02T15:00:10.697Z,19.65
2023-10-02T15:05:32.064Z,19.62
2023-10-02T15:10:54.433Z,19.58
2023-10-02T15:16:16.480Z,19.53
2023-10-02T15:21:38.173Z,19.46
2023-10-02T15:26:59.577Z,19.40
2023-10-02T15:32:22.048Z,19.37
2023-10-02T15:37:45.086Z,19.36
2023-10-02T15:43:05.979Z,19.30
2023-10-02T15:48:26.655Z,19.24
2023-10-02T15:53:46.942Z,19.18
2023-10-02T15:59:07.690Z,19.18
2023-10-02T16:04:28.112Z,19.12
2023-10-02T16:09:48.840Z,19.08
2023-10-02T16:15:13.165Z,19.03
2023-10-02T16:20:33.697Z,18.99
2023-10-02T16:25:54.962Z,18.92
2023-10-02T16:31:18.101Z,18.92
2023-10-02T16:36:38.457Z,18.87
2023-10-02T16:41:59.074Z,18.82
2023-10-02T16:47:20.801Z,18.75
2023-10-02T16:52:45.563Z,18.68
2023-10-02T16:58:08.203Z,18.63
2023-10-02T17:03:29.270Z,18.57
2023-10-02T17:08:49.895Z,18.54
2023-10-02T17:14:11.834Z,18.51
2023-10-02T17:19:32.325Z,18.48
2023-10-02T17:24:53.254Z,18.46
2023-10-02T17:30:15.525Z,18.43
2023-10-02T17:35:37.393Z,18.38
2023-10-02T17:40:58.078Z,18.37
2023-10-02T17:46:19.092Z,18.33
2023-10-02T17:51:40.851Z,18.32
2023-10-02T17:57:03.959Z,18.33
2023-10-02T18:02:24.692Z,18.38
2023-10-02T18:07:46.293Z,18.40
2023-10-02T18:13:08.247Z,18.41
2023-10-02T18:18:28.988Z,18.42
2023-10-02T18:23:49.542Z,18.43
2023-10-02T18:29:12.990Z,18.40
2023-10-02T18:34:43.712Z,18.37
2023-10-02T18:40:09.842Z,18.38
2023-10-02T18:45:33.884Z,18.36
2023-10-02T18:50:54.378Z,18.30
2023-10-02T18:56:14.915Z,18.27
2023-10-02T19:01:36.755Z,18.28
2023-10-02T19:06:57.194Z,18.27
2023-10-02T19:12:17.748Z,18.29
2023-10-02T19:17:38.845Z,18.34
2023-10-02T19:22:59.967Z,18.33
2023-10-02T19:28:20.566Z,18.32
2023-10-02T19:33:41.459Z,18.31
2023-10-02T19:39:05.659Z,18.31
2023-10-02T19:44:26.083Z,18.33
2023-10-02T19:49:46.996Z,18.34
2023-10-02T19:55:08.554Z,18.34
2023-10-02T20:00:29.753Z,18.38
2023-10-02T20:05:50.647Z,18.37
2023-10-02T20:11:12.383Z,18.38
2023-10-02T20:16:44.502Z,18.34
2023-10-02T20:22:06.184Z,18.35
2023-10-02T20:27:26.868Z,18.35
2023-10-02T20:32:48.640Z,18.33
2023-10-02T20:38:11.191Z,18.35
2023-10-02T20:43:32.672Z,18.34
2023-10-02T20:48:53.349Z,18.34
2023-10-02T20:54:16.744Z,18.36
2023-10-02T20:59:38.115Z,18.35
2023-10-02T21:04:59.256Z,18.34
2023-10-02T21:10:20.641Z,18.33
2023-10-02T21:15:45.575Z,18.33
2023-10-02T21:21:05.955Z,18.31
2023-10-02T21:26:28.788Z,18.28
2023-10-02T21:31:50.623Z,18.29
2023-10-02T21:37:11.139Z,18.26
2023-10-02T21:42:32.403Z,18.21
2023-10-02T21:47:54.034Z,18.20
2023-10-02T21:53:14.842Z,18.16
2023-10-02T21:58:35.797Z,18.11
2023-10-02T22:03:57.160Z,18.07
2023-10-02T22:09:18.836Z,18.08
2023-10-02T22:14:40.673Z,18.11
2023-10-02T22:20:02.857Z,18.10
2023-10-02T22:25:23.282Z,18.09
2023-10-02T22:30:44.250Z,18.04
2023-10-02T22:36:07.992Z,18.06
2023-10-02T22:41:30.841Z,18.08
2023-10-02T22:46:53.925Z,18.07
2023-10-02T22:52:15.294Z,18.08
2023-10-02T22:57:40.093Z,18.07
2023-10-02T23:03:00.606Z,18.05
2023-10-02T23:08:23.177Z,18.03
2023-10-02T23:13:43.734Z,17.96
2023-10-02T23:19:05.793Z,17.95
2023-10-02T23:24:26.675Z,17.92
2023-10-02T23:29:48.589Z,17.90
2023-10-02T23:35:09.542Z,17.90
2023-10-02T23:40:30.236Z,17.90
2023-10-02T23:45:52.414Z,17.89
2023-10-02T23:51:15.689Z,17.88
2023-10-02T23:56:36.060Z,17.87
